F/V Carmalia — FMFK — position and weather

sailwx.info

Track history (hours):
 
Tides and Currents Weather Stations Pressure Air Temp Water Temp Dewpoint Dewpoint Depression Visibility Wind Speed Wind Dir Waves Ship Positions

F/V Carmalia

Last reported at 2016-May-04 11:33 UTC. Time now 2016-May-04 11:41 UTC.
Position N 47°35' W 003°50'.

Length 17 m.

Type: Fishing. MMSI: 228222900.

Date/timePositionNaut miles runAvg speedWind from/ knotsBaromVisibWave heightAir tempDewpointWater temp
2016-May-04 11:33N 47°35' W 003°50'9 8.6
2016-May-04 10:33N 47°38' W 003°38'9 8.8
2016-May-04 09:33N 47°41' W 003°26'4 4.1
2016-May-04 08:33N 47°44' W 003°22'0 0.0
2016-May-04 07:33N 47°44' W 003°22'0 0.0
2016-May-04 06:33N 47°44' W 003°22'0 0.0
2016-May-02 07:27N 47°44' W 003°22'  
2016-Apr-29 16:33N 47°44' W 003°22'0 0.1
2016-Apr-29 15:33N 47°44' W 003°22'0 0.1
2016-Apr-29 14:33N 47°44' W 003°22'0 0.0
2016-Apr-29 13:33N 47°44' W 003°22'3 3.2
2016-Apr-29 12:33N 47°41' W 003°24'10 9.8
2016-Apr-29 11:33N 47°38' W 003°38'  
2016-Apr-25 16:32N 47°38' W 003°47'9 8.8
2016-Apr-25 15:33N 47°40' W 003°35'8 7.9
2016-Apr-25 14:34N 47°42' W 003°23'2 2.4
2016-Apr-25 13:33N 47°44' W 003°22'0 0.0
2016-Apr-25 12:33N 47°44' W 003°22'6 6.4
2016-Apr-25 11:33N 47°40' W 003°29'9 9.5
2016-Apr-25 10:33N 47°36' W 003°43'  
Track history (hours):
 
Tides and Currents Weather Stations Pressure Air Temp Water Temp Dewpoint Dewpoint Depression Visibility Wind Speed Wind Dir Waves Ship Positions

F/V Carmalia

Last reported at 2016-May-04 11:33 UTC. Time now 2016-May-04 11:41 UTC.
Position N 47°35' W 003°50'.

Length 17 m.

Type: Fishing. MMSI: 228222900.

Date/timePositionNaut miles runAvg speedWind from/ knotsBaromVisibWave heightAir tempDewpointWater temp
2016-May-04 11:33N 47°35' W 003°50'9 8.6
2016-May-04 10:33N 47°38' W 003°38'9 8.8
2016-May-04 09:33N 47°41' W 003°26'4 4.1
2016-May-04 08:33N 47°44' W 003°22'0 0.0
2016-May-04 07:33N 47°44' W 003°22'0 0.0
2016-May-04 06:33N 47°44' W 003°22'0 0.0
2016-May-02 07:27N 47°44' W 003°22'  
2016-Apr-29 16:33N 47°44' W 003°22'0 0.1
2016-Apr-29 15:33N 47°44' W 003°22'0 0.1
2016-Apr-29 14:33N 47°44' W 003°22'0 0.0
2016-Apr-29 13:33N 47°44' W 003°22'3 3.2
2016-Apr-29 12:33N 47°41' W 003°24'10 9.8
2016-Apr-29 11:33N 47°38' W 003°38'  
2016-Apr-25 16:32N 47°38' W 003°47'9 8.8
2016-Apr-25 15:33N 47°40' W 003°35'8 7.9
2016-Apr-25 14:34N 47°42' W 003°23'2 2.4
2016-Apr-25 13:33N 47°44' W 003°22'0 0.0
2016-Apr-25 12:33N 47°44' W 003°22'6 6.4
2016-Apr-25 11:33N 47°40' W 003°29'9 9.5
2016-Apr-25 10:33N 47°36' W 003°43'  

Dump ship's entire track history